Logo AVAMET
Benvolgut visitant, si us plau, ingressa Recuperar contrasenya
AVAMET paisatges

Callosa d′en Sarrià Margeve

Dades diàries. Acumulats / Últims 30 dies disponibles

Data Temperatura (°C) Humitat rel. (%) Pressió rel. (hPa) Vent (km/h) Precipitació
Mínima Mitjana Màxima Amplitud
tèrmica
Mínima Mitjana Màxima Mínima Mitjana Màxima Predom. Mitjana Ràfega
màxima
Total
(mm)
Índex-n
Mínima Mitjana Màxima Mínima Mitjana Màxima n
0 a 1
P0 max
mm 5'
Dades mensuals acumulades fins l'últim dia disponible
08/2020 21,0 22,5 23,8 26,0 28,1 30,8 34,6 13,6 25 74 99 1.009 1.012 1.014   6,9 28,4 1,0
Dades anuals acumulades fins l'últim dia disponible
2020 5,1 14,4 26,2 17,9 11,0 22,1 35,5 30,4 13 59 99 1.000 1.016 1.032   6,8 61,1 560,4
Últims 30 dies disponibles
05-08-2020 21,0     24,5     28,2 7,2 60 75 89 1.011 1.012 1.013 SE 7,5 25,5 0,0
04-08-2020 21,9     24,6     28,1 6,2 60 80 97 1.011 1.012 1.013 SE 7,7 28,4 0,0
03-08-2020 23,8     25,4     29,3 5,5 60 79 96 1.009 1.011 1.013 S 5,9 18,7 1,0
02-08-2020 23,4     27,4     34,6 11,2 41 64 92 1.010 1.011 1.012 S 8,1 26,6 0,0
01-08-2020 22,2     28,0     33,8 11,6 25 69 99 1.010 1.013 1.014 S 5,4 21,4 0,0
31-07-2020 24,4     28,5     32,4 8,0 35 53 86 1.012 1.013 1.015 SSE 7,8 23,1 0,0
30-07-2020 24,7     29,4     35,5 10,8 37 45 58 1.012 1.013 1.014 SO 8,6 24,7 0,0
29-07-2020 24,9     28,2     31,8 6,9 38 49 64 1.011 1.013 1.015 OSO 11,7 30,0 0,0
28-07-2020 26,2     30,2     35,3 9,1 22 32 51 1.011 1.012 1.015 SO 8,3 25,8 0,0
27-07-2020 23,2     28,2     34,6 11,4 23 35 57 1.014 1.014 1.015 SSO 7,5 23,2 0,0
26-07-2020 21,5     26,0     31,0 9,5 36 56 78 1.011 1.013 1.015 S 5,8 21,1 0,0
25-07-2020 21,5     25,4     30,1 8,6 32 54 81 1.011 1.013 1.014 S 7,2 28,2 0,0
24-07-2020 21,9     25,8     30,4 8,5 40 52 77 1.011 1.012 1.014 S 7,2 22,6 0,0
23-07-2020 22,7     26,5     31,3 8,6 27 44 59 1.013 1.014 1.016 SSO 8,9 22,9 0,0
22-07-2020 23,3     26,1     29,6 6,3 40 55 70 1.015 1.016 1.017 SO 12,0 26,9 0,0
21-07-2020 21,2     26,6     33,1 11,9 20 44 70 1.015 1.016 1.017 OSO 9,0 26,5 0,0
20-07-2020 20,7     24,0     27,9 7,2 56 72 86 1.013 1.015 1.017 S 6,2 22,1 0,0
19-07-2020 19,5     24,4     30,0 10,5 36 66 87 1.013 1.014 1.015 SSE 9,8 31,9 0,0
18-07-2020 19,7     23,4     27,7 8,0 50 70 84 1.013 1.014 1.015 S 7,6 28,1 0,0
17-07-2020 19,1     23,0     27,3 8,2 56 69 84 1.013 1.015 1.016 SSE 8,5 24,5 0,0
16-07-2020 20,0     23,5     27,2 7,2 43 58 81 1.015 1.016 1.018 S 8,0 25,5 0,0
15-07-2020 18,5     23,3     28,1 9,6 37 59 83 1.013 1.015 1.017 SSO 7,1 23,3 0,0
14-07-2020 20,5     24,0     27,7 7,2 44 59 91 1.012 1.014 1.016 SO 7,8 24,3 2,8
13-07-2020 21,4     25,9     30,3 8,9 37 50 74 1.014 1.016 1.017 SO 9,9 32,0 0,0
12-07-2020 21,4     24,7     30,1 8,7 41 61 75 1.015 1.016 1.018 SO 8,2 27,3 0,2
11-07-2020 22,4     26,3     30,2 7,8 46 55 75 1.012 1.014 1.016 OSO 10,5 24,7 0,0
10-07-2020 22,6     26,7     32,4 9,8 35 53 67 1.011 1.012 1.015 SSO 8,9 24,8 0,0
09-07-2020 23,0     26,5     31,2 8,2 33 47 68 1.011 1.014 1.017 SSO 7,2 23,4 0,0
08-07-2020 19,7     24,6     29,0 9,3 31 61 88 1.014 1.015 1.016 S 7,4 25,3 0,0
07-07-2020 20,7     25,5     30,4 9,7 30 51 81 1.013 1.014 1.015 S 6,1 25,8 0,0
Últims 13 mesos disponibles
07/2020 18,5 21,5 26,2 25,6 25,7 30,3 35,5 17,0 32 57 82 1.010 1.014 1.019 S 8,2 32,0 3,0
06/2020 13,6 18,0 25,1 22,2 19,6 26,6 32,1 18,5 37 61 84 1.003 1.012 1.020 S 7,4 48,5 84,8
05/2020 12,2 16,5 20,5 20,4 18,9 25,0 29,3 17,1 39 52 73 1.004 1.015 1.024 S 7,1 32,3 31,4
04/2020 8,9 12,2 15,7 15,3 14,8 19,1 25,7 16,8 35 63 83 1.003 1.013 1.023 SSO 6,7 38,7 31,8
03/2020 6,7 11,1 15,3 14,1 11,0 17,8 23,5 16,8 30 58 85 1.005 1.014 1.023 OSO 7,5 51,3 75,6
02/2020 7,6 10,9 15,0 14,7 14,5 18,9 26,7 19,1 23 59 88 1.012 1.023 1.030 SSO 5,1 29,1 2,2
01/2020 5,1 8,8 14,7 11,9 11,4 15,6 21,3 16,2 38 61 81 1.012 1.022 1.029 SO 5,7 61,1 330,6
12/2019 7,6 11,2 16,7 14,0 12,8 17,4 23,2 15,6 36 60 82 1.002 1.016 1.030 SSO 6,0 66,4 151,0
11/2019 6,9 12,2 19,7 15,2 13,9 18,6 26,3 19,4 31 47 75 996 1.008 1.016 SSO 7,4 57,1 13,8
10/2019 10,7 16,5 20,3 19,8 16,6 23,8 29,9 19,2 35 62 80 1.006 1.014 1.020 SSO 5,5 39,3 49,6
09/2019 12,5 19,6 22,2 23,0 21,6 26,8 31,6 19,1 53 70 85 1.008 1.015 1.022 SSO 6,5 43,0 197,4
08/2019 19,9 22,8 27,2 26,5 28,0 30,6 35,3 15,4 35 61 77 1.009 1.014 1.017 S 7,1 36,4 22,8
07/2019 20,2 23,4 25,9 27,2 26,6 31,7 36,5 16,3 24 51 76 1.004 1.012 1.019 S 8,1 35,9 0,2
Tots els anys disponibles
2019 3,1 14,5 27,2 18,0 10,9 22,1 38,2 35,1 24 55 85 994 1.015 1.030 S 6,7 66,4 679,0
Temperatura (°C)
Humitat relativa (%)
Velocitat del vent i ràfega màxima (km/h)
Direcció del vent (°)
Pressió (hPa)
Precipitació (mm)
Nota sobre les dades: s'avisa a l'usuari de la provisionalitat i no oficialitat d'aquestes dades
Logo AVAMET blanc
Web allotjada a Sollutia
Llicència de Creative CommonsLa web d'AVAMET i els seus continguts estan subjectes a una llicència de
Reconeixement - No Comercial - Compartir igual
Últimes estacions: Torremocha del Jiloca (Limítrofe/Soci), Orihuela - Arneva (MeteOrihuela), Enguera - Antolí (Soci), Vilamarxant - La Pedrera (Soci), Càlig (Ajuntament Soci), Quesa - Hotel La Rocha (Soci), Agres - Les Eres (Soci) - - -